Time;durP1;ratioP1;P1;durP2;ratioP2;P2;SDS_P1;SDS_P2;PMS_P1;PMS_P2;Temp;Humidity;BMP_temperature;BMP_pressure;BME280_temperature;BME280_humidity;BME280_pressure;Samples;Min_cycle;Max_cycle;Signal;HPM_P1;HPM_P2
2023/12/16 00:02:06;;;;;;;;;;;;;;;4.69;57.21;101836.59;4486004;31;34429;-80
2023/12/16 00:04:36;;;;;;;;;;;;;;;4.77;57.14;101846.69;4484856;31;35738;-74
2023/12/16 00:07:04;;;;;;;;;;;;;;;4.88;56.82;101841.88;4484955;31;34190;-73
2023/12/16 00:09:31;;;;;;;;;;;;;;;4.75;57.20;101841.41;4484418;31;31482;-74
2023/12/16 00:11:59;;;;;;;;;;;;;;;4.82;57.02;101840.37;4487174;31;34896;-72
2023/12/16 00:14:27;;;;;;;;;;;;;;;4.83;56.99;101839.59;4493007;31;33756;-75
2023/12/16 00:16:54;;;;;;;;;;;;;;;4.68;57.29;101839.00;4490951;31;33641;-81
2023/12/16 00:19:21;;;;;;;;;;;;;;;4.33;58.08;101844.03;4492024;31;32540;-77
2023/12/16 00:21:49;;;;;;;;;;;;;;;4.49;58.19;101846.47;4483929;31;34157;-74
2023/12/16 00:24:16;;;;;;;;;;;;;;;4.20;58.96;101852.09;4486682;31;34583;-77
2023/12/16 00:26:43;;;;;;;;;;;;;;;4.38;58.68;101847.94;4485990;31;34714;-77
2023/12/16 00:29:11;;;;;;;;;;;;;;;4.37;58.51;101850.37;4486575;31;33120;-77
2023/12/16 00:31:39;;;;;;;;;;;;;;;4.59;58.01;101838.06;4488050;31;34874;-78
2023/12/16 00:34:07;;;;;;;;;;;;;;;4.64;57.47;101836.87;4490469;31;35090;-77
2023/12/16 00:36:34;;;;;;;;;;;;;;;4.69;57.47;101835.66;4484608;31;34103;-76
2023/12/16 00:39:02;;;;;;;;;;;;;;;4.82;57.00;101838.69;4486093;31;31847;-78
2023/12/16 00:41:30;;;;;;;;;;;;;;;4.91;56.54;101834.50;4487721;31;34452;-76
2023/12/16 00:43:57;;;;;;;;;;;;;;;4.77;57.13;101845.06;4495485;31;33752;-76
2023/12/16 00:46:25;;;;;;;;;;;;;;;4.86;57.18;101848.53;4488550;31;34706;-78
2023/12/16 00:48:53;;;;;;;;;;;;;;;4.84;57.30;101841.44;4480901;31;33049;-78
2023/12/16 00:51:21;;;;;;;;;;;;;;;5.02;56.73;101850.06;4474151;31;33664;-74
2023/12/16 00:53:48;;;;;;;;;;;;;;;5.02;56.45;101855.19;4486395;31;34475;-81
2023/12/16 00:56:17;;;;;;;;;;;;;;;5.00;56.39;101856.72;4486723;31;34137;-78
2023/12/16 00:58:47;;;;;;;;;;;;;;;4.84;56.96;101865.44;4490907;31;33929;-80
2023/12/16 01:01:15;;;;;;;;;;;;;;;4.98;56.77;101856.53;4488375;31;34174;-79
2023/12/16 01:03:43;;;;;;;;;;;;;;;4.98;56.70;101860.78;4472396;31;34079;-75
2023/12/16 01:06:10;;;;;;;;;;;;;;;4.42;58.25;101865.47;4488099;31;33951;-75
2023/12/16 01:08:37;;;;;;;;;;;;;;;4.52;58.11;101864.78;4492800;31;33191;-77
2023/12/16 01:11:05;;;;;;;;;;;;;;;4.59;57.93;101863.72;4490856;31;34428;-76
2023/12/16 01:13:32;;;;;;;;;;;;;;;4.58;57.96;101862.81;4487801;31;33952;-78
2023/12/16 01:15:59;;;;;;;;;;;;;;;4.50;58.46;101868.81;4480453;32;34218;-75
2023/12/16 01:18:27;;;;;;;;;;;;;;;4.44;58.34;101874.25;4486175;31;34276;-76
2023/12/16 01:20:54;;;;;;;;;;;;;;;4.57;58.00;101875.50;4490634;31;34054;-73
2023/12/16 01:23:21;;;;;;;;;;;;;;;4.46;58.34;101880.44;4487623;31;33941;-77
2023/12/16 01:25:49;;;;;;;;;;;;;;;4.51;58.04;101879.25;4489811;31;34195;-78
2023/12/16 01:28:16;;;;;;;;;;;;;;;4.44;58.30;101874.25;4486028;31;33549;-80
2023/12/16 01:30:44;;;;;;;;;;;;;;;4.21;58.93;101865.81;4489134;31;34244;-78
2023/12/16 01:33:12;;;;;;;;;;;;;;;4.31;58.32;101871.19;4487919;31;33578;-78
2023/12/16 01:35:40;;;;;;;;;;;;;;;4.19;58.21;101868.25;4489985;31;34722;-78
2023/12/16 01:38:07;;;;;;;;;;;;;;;4.14;58.77;101878.03;4492688;31;33265;-75
2023/12/16 01:40:36;;;;;;;;;;;;;;;4.05;59.20;101881.28;4484760;31;34148;-75
2023/12/16 01:43:04;;;;;;;;;;;;;;;4.10;59.54;101887.81;4488567;31;34917;-72
2023/12/16 01:45:32;;;;;;;;;;;;;;;3.86;60.28;101883.59;4494467;31;33633;-73
2023/12/16 01:47:59;;;;;;;;;;;;;;;4.19;59.63;101885.28;4484702;31;31933;-81
2023/12/16 01:50:27;;;;;;;;;;;;;;;3.77;61.31;101883.56;4478081;31;34268;-75
2023/12/16 01:52:54;;;;;;;;;;;;;;;3.49;62.38;101880.63;4490768;31;34983;-74
2023/12/16 01:55:22;;;;;;;;;;;;;;;3.68;61.89;101883.47;4483671;31;33965;-72
2023/12/16 01:57:49;;;;;;;;;;;;;;;3.69;62.09;101882.75;4473840;32;33394;-74
2023/12/16 02:00:16;;;;;;;;;;;;;;;3.82;61.61;101901.97;4489344;31;34481;-78
2023/12/16 02:02:44;;;;;;;;;;;;;;;4.02;61.01;101901.47;4477262;32;34159;-78
2023/12/16 02:05:12;;;;;;;;;;;;;;;4.09;60.52;101889.44;4485257;31;35054;-73
2023/12/16 02:07:39;;;;;;;;;;;;;;;4.31;59.91;101881.44;4473856;31;33862;-75
2023/12/16 02:10:08;;;;;;;;;;;;;;;4.07;60.55;101884.94;4480023;32;33844;-75
2023/12/16 02:12:35;;;;;;;;;;;;;;;4.00;60.76;101885.97;4489766;31;32802;-77
2023/12/16 02:15:04;;;;;;;;;;;;;;;4.04;60.73;101875.25;4495987;31;34835;-75
2023/12/16 02:17:34;;;;;;;;;;;;;;;4.18;60.46;101879.25;4484875;31;33106;-74
2023/12/16 02:20:03;;;;;;;;;;;;;;;4.28;60.25;101886.25;4494028;31;34228;-77
2023/12/16 02:22:30;;;;;;;;;;;;;;;4.22;60.05;101893.31;4488832;31;34781;-78
2023/12/16 02:24:57;;;;;;;;;;;;;;;4.10;59.88;101901.53;4489698;31;34284;-76
2023/12/16 02:27:25;;;;;;;;;;;;;;;4.27;59.47;101910.09;4476606;31;34128;-73
2023/12/16 02:29:52;;;;;;;;;;;;;;;4.21;59.44;101906.88;4488442;31;34719;-76
2023/12/16 02:32:19;;;;;;;;;;;;;;;4.48;58.60;101906.25;4490744;31;34260;-77
2023/12/16 02:34:48;;;;;;;;;;;;;;;4.27;59.09;101899.84;4489337;31;33714;-74
2023/12/16 02:37:15;;;;;;;;;;;;;;;4.21;59.16;101914.56;4485954;31;33421;-76
2023/12/16 02:39:42;;;;;;;;;;;;;;;4.30;58.78;101906.16;4483669;31;32997;-76
2023/12/16 02:42:10;;;;;;;;;;;;;;;4.33;58.65;101896.22;4480093;31;33552;-72
2023/12/16 02:44:38;;;;;;;;;;;;;;;4.11;58.97;101902.44;4480949;31;34150;-77
2023/12/16 02:47:06;;;;;;;;;;;;;;;4.01;59.50;101915.06;4488129;31;33435;-78
2023/12/16 02:49:34;;;;;;;;;;;;;;;3.83;59.90;101919.19;4490433;31;34318;-74
2023/12/16 02:52:01;;;;;;;;;;;;;;;3.59;60.83;101922.59;4488723;31;34687;-80
2023/12/16 02:54:29;;;;;;;;;;;;;;;3.73;60.59;101923.31;4488871;31;34392;-78
2023/12/16 02:56:56;;;;;;;;;;;;;;;3.61;60.56;101932.28;4484717;31;32841;-77
2023/12/16 02:59:24;;;;;;;;;;;;;;;3.66;60.76;101941.34;4492102;31;34963;-73
2023/12/16 03:01:51;;;;;;;;;;;;;;;3.86;60.16;101940.00;4485503;31;34348;-72
2023/12/16 03:04:18;;;;;;;;;;;;;;;3.59;60.67;101946.56;4474217;31;33916;-78
2023/12/16 03:06:46;;;;;;;;;;;;;;;3.78;60.59;101939.19;4491830;31;34016;-80
2023/12/16 03:09:13;;;;;;;;;;;;;;;3.72;60.79;101935.97;4496702;31;34848;-74
2023/12/16 03:11:41;;;;;;;;;;;;;;;3.72;60.82;101935.97;4490104;31;34816;-80
2023/12/16 03:14:08;;;;;;;;;;;;;;;3.67;60.97;101952.50;4487748;31;33969;-78
2023/12/16 03:16:35;;;;;;;;;;;;;;;3.63;61.08;101956.44;4486775;31;33184;-75
2023/12/16 03:19:04;;;;;;;;;;;;;;;3.32;62.11;101962.44;4487779;31;34151;-75
2023/12/16 03:21:31;;;;;;;;;;;;;;;3.43;61.92;101958.50;4489692;31;34174;-78
2023/12/16 03:23:59;;;;;;;;;;;;;;;3.49;61.62;101954.03;4486332;31;34632;-79
2023/12/16 03:26:26;;;;;;;;;;;;;;;3.53;61.66;101949.41;4490625;31;33411;-75
2023/12/16 03:28:53;;;;;;;;;;;;;;;3.64;61.14;101953.09;4485833;31;33922;-78
2023/12/16 03:31:20;;;;;;;;;;;;;;;3.59;60.91;101954.25;4490313;31;32805;-72
2023/12/16 03:33:48;;;;;;;;;;;;;;;3.51;61.00;101953.44;4485081;31;33342;-79
2023/12/16 03:36:16;;;;;;;;;;;;;;;3.56;61.14;101959.06;4484284;31;34004;-75
2023/12/16 03:38:43;;;;;;;;;;;;;;;3.74;60.84;101955.87;4486473;31;34435;-73
2023/12/16 03:41:14;;;;;;;;;;;;;;;3.78;60.96;101966.47;4494199;31;34024;-80
2023/12/16 03:43:41;;;;;;;;;;;;;;;3.87;60.67;101970.03;4484508;31;34129;-77
2023/12/16 03:46:08;;;;;;;;;;;;;;;3.66;61.28;101972.09;4490789;31;33302;-77
2023/12/16 03:48:36;;;;;;;;;;;;;;;3.92;60.70;101979.09;4491164;31;34025;-78
2023/12/16 03:51:03;;;;;;;;;;;;;;;3.97;59.83;101972.81;4484402;31;34945;-78
2023/12/16 03:53:30;;;;;;;;;;;;;;;3.87;60.51;101993.09;4477909;31;34316;-79
2023/12/16 03:55:58;;;;;;;;;;;;;;;4.09;59.61;101981.78;4473862;32;33860;-73
2023/12/16 03:58:25;;;;;;;;;;;;;;;3.96;59.56;101981.25;4486217;31;34656;-75
2023/12/16 04:00:53;;;;;;;;;;;;;;;3.74;60.16;101985.75;4480007;31;34255;-76
2023/12/16 04:03:21;;;;;;;;;;;;;;;3.77;60.69;101987.72;4495064;31;34279;-75
2023/12/16 04:05:49;;;;;;;;;;;;;;;3.79;60.26;101983.69;4493338;31;33169;-80
2023/12/16 04:08:16;;;;;;;;;;;;;;;4.05;59.64;101977.09;4497177;31;34286;-75
2023/12/16 04:10:44;;;;;;;;;;;;;;;4.05;59.53;101984.78;4483954;31;35047;-78
2023/12/16 04:13:11;;;;;;;;;;;;;;;3.92;59.87;101986.78;4491610;31;34347;-79
2023/12/16 04:15:38;;;;;;;;;;;;;;;3.89;59.82;101991.59;4486446;31;33126;-79
2023/12/16 04:18:06;;;;;;;;;;;;;;;3.96;59.65;101999.22;4492612;31;34045;-73
2023/12/16 04:20:34;;;;;;;;;;;;;;;3.81;60.14;101997.59;4484757;31;34137;-77
2023/12/16 04:23:02;;;;;;;;;;;;;;;3.67;60.38;102009.81;4484968;31;34553;-78
2023/12/16 04:25:30;;;;;;;;;;;;;;;3.40;60.94;102012.87;4491157;31;31880;-73
2023/12/16 04:27:57;;;;;;;;;;;;;;;3.50;61.05;102009.66;4484935;31;34069;-77
2023/12/16 04:30:24;;;;;;;;;;;;;;;3.45;61.49;102013.37;4486496;31;34213;-74
2023/12/16 04:32:52;;;;;;;;;;;;;;;3.41;61.61;102019.81;4489564;31;33846;-77
2023/12/16 04:35:19;;;;;;;;;;;;;;;3.64;60.96;102018.84;4486891;31;34146;-74
2023/12/16 04:37:47;;;;;;;;;;;;;;;3.50;61.29;102017.34;4490124;31;34840;-77
2023/12/16 04:40:14;;;;;;;;;;;;;;;3.51;61.44;102019.16;4480654;31;33350;-75
2023/12/16 04:42:42;;;;;;;;;;;;;;;3.45;61.49;102015.94;4478452;31;34034;-72
2023/12/16 04:45:09;;;;;;;;;;;;;;;3.31;61.81;102025.56;4470685;31;33209;-75
2023/12/16 04:47:37;;;;;;;;;;;;;;;3.49;61.43;102025.75;4465293;32;34196;-78
2023/12/16 04:50:05;;;;;;;;;;;;;;;3.81;60.37;102028.34;4469387;31;33933;-75
2023/12/16 04:52:33;;;;;;;;;;;;;;;3.83;59.85;102031.97;4449349;31;33862;-74
2023/12/16 04:55:01;;;;;;;;;;;;;;;3.70;60.12;102033.19;4467290;31;33363;-75
2023/12/16 04:57:28;;;;;;;;;;;;;;;3.72;60.29;102034.28;4460876;31;33845;-77
2023/12/16 04:59:56;;;;;;;;;;;;;;;3.64;60.69;102024.84;4461372;32;34792;-77
2023/12/16 05:02:23;;;;;;;;;;;;;;;3.82;60.12;102028.47;4485791;31;34149;-79
2023/12/16 05:04:50;;;;;;;;;;;;;;;3.61;60.76;102029.66;4481319;31;34094;-74
2023/12/16 05:07:18;;;;;;;;;;;;;;;3.49;61.11;102028.31;4490509;31;34506;-74
2023/12/16 05:09:45;;;;;;;;;;;;;;;3.52;61.15;102029.56;4483241;31;33819;-77
2023/12/16 05:12:12;;;;;;;;;;;;;;;3.55;61.03;102034.09;4485062;31;34790;-74
2023/12/16 05:14:40;;;;;;;;;;;;;;;3.39;61.13;102030.63;4489085;31;33891;-78
2023/12/16 05:17:07;;;;;;;;;;;;;;;3.27;61.71;102031.13;4485472;31;34178;-73
2023/12/16 05:19:34;;;;;;;;;;;;;;;3.40;61.07;102032.44;4488172;31;33852;-77
2023/12/16 05:22:02;;;;;;;;;;;;;;;3.08;61.72;102042.63;4472478;31;34801;-75
2023/12/16 05:24:30;;;;;;;;;;;;;;;3.20;62.13;102041.41;4482318;31;33417;-75
2023/12/16 05:26:57;;;;;;;;;;;;;;;3.30;61.42;102046.84;4486239;31;34333;-74
2023/12/16 05:29:24;;;;;;;;;;;;;;;3.47;60.75;102050.31;4493217;31;33977;-73
2023/12/16 05:31:51;;;;;;;;;;;;;;;3.59;60.23;102061.88;4494154;31;34234;-77
2023/12/16 05:34:19;;;;;;;;;;;;;;;3.41;60.59;102059.91;4484667;31;32909;-78
2023/12/16 05:36:47;;;;;;;;;;;;;;;3.35;60.74;102055.91;4490219;31;33790;-75
2023/12/16 05:39:15;;;;;;;;;;;;;;;3.38;60.36;102063.03;4492870;31;34291;-75
2023/12/16 05:41:42;;;;;;;;;;;;;;;3.46;59.74;102063.87;4486446;31;34018;-78
2023/12/16 05:44:09;;;;;;;;;;;;;;;3.57;59.60;102065.03;4487808;31;34147;-72
2023/12/16 05:46:37;;;;;;;;;;;;;;;3.52;59.67;102059.41;4497322;31;34996;-72
2023/12/16 05:49:05;;;;;;;;;;;;;;;3.64;59.65;102068.44;4493985;31;34026;-75
2023/12/16 05:51:39;;;;;;;;;;;;;;;3.63;59.81;102074.31;4488656;31;34978;-73
2023/12/16 05:54:10;;;;;;;;;;;;;;;3.65;59.76;102072.81;4484874;31;33256;-76
2023/12/16 05:56:37;;;;;;;;;;;;;;;3.40;60.73;102070.87;4487834;31;33270;-78
2023/12/16 05:59:04;;;;;;;;;;;;;;;3.43;61.00;102060.97;4478016;31;32215;-75
2023/12/16 06:01:32;;;;;;;;;;;;;;;3.66;60.37;102072.06;4484265;31;34913;-77
2023/12/16 06:03:59;;;;;;;;;;;;;;;3.61;60.68;102068.13;4484155;31;33424;-75
2023/12/16 06:06:26;;;;;;;;;;;;;;;3.39;61.09;102072.53;4487792;31;33977;-77
2023/12/16 06:08:54;;;;;;;;;;;;;;;3.43;61.32;102078.91;4494344;31;34886;-75
2023/12/16 06:11:22;;;;;;;;;;;;;;;3.23;61.28;102069.94;4484289;31;33662;-75
2023/12/16 06:13:53;;;;;;;;;;;;;;;3.70;59.79;102079.34;4472174;31;34178;-79
2023/12/16 06:16:21;;;;;;;;;;;;;;;3.50;59.93;102078.84;4489431;31;33171;-74
2023/12/16 06:18:49;;;;;;;;;;;;;;;3.26;60.19;102090.75;4484323;31;33771;-75
2023/12/16 06:21:16;;;;;;;;;;;;;;;3.37;59.79;102084.25;4487492;31;34780;-72
2023/12/16 06:23:44;;;;;;;;;;;;;;;3.21;59.92;102091.91;4475894;31;33535;-76
2023/12/16 06:26:11;;;;;;;;;;;;;;;3.31;59.63;102088.72;4488713;31;33563;-80
2023/12/16 06:28:39;;;;;;;;;;;;;;;3.20;59.98;102086.63;4482689;31;34142;-76
2023/12/16 06:31:06;;;;;;;;;;;;;;;3.30;59.99;102087.81;4491525;31;35631;-77
2023/12/16 06:33:33;;;;;;;;;;;;;;;3.29;59.88;102075.72;4482522;31;34071;-78
2023/12/16 06:36:01;;;;;;;;;;;;;;;3.65;70.99;102083.09;4485078;31;33935;-76
2023/12/16 06:38:30;;;;;;;;;;;;;;;3.40;67.32;102091.37;4487127;31;35549;-77
2023/12/16 06:40:58;;;;;;;;;;;;;;;3.61;64.01;102096.31;4486634;31;33452;-74
2023/12/16 06:43:25;;;;;;;;;;;;;;;3.44;64.11;102093.53;4487007;31;33117;-75
2023/12/16 06:45:54;;;;;;;;;;;;;;;3.64;62.91;102096.62;4488650;31;34994;-75
2023/12/16 06:48:24;;;;;;;;;;;;;;;3.73;62.62;102095.06;4475451;31;33950;-74
2023/12/16 06:50:57;;;;;;;;;;;;;;;3.62;62.66;102103.22;4491644;31;32785;-78
2023/12/16 06:53:24;;;;;;;;;;;;;;;4.55;86.08;102108.00;4492988;31;34109;-76
2023/12/16 06:55:53;;;;;;;;;;;;;;;4.38;81.37;102112.22;4486547;31;32827;-80
2023/12/16 06:58:20;;;;;;;;;;;;;;;4.36;78.49;102124.00;4492722;31;33951;-79
2023/12/16 07:00:48;;;;;;;;;;;;;;;4.55;76.54;102115.69;4490347;31;34807;-79
2023/12/16 07:03:16;;;;;;;;;;;;;;;4.47;75.15;102123.47;4490989;31;33308;-77
2023/12/16 07:05:43;;;;;;;;;;;;;;;4.65;71.15;102121.03;4472710;31;34973;-76
2023/12/16 07:08:13;;;;;;;;;;;;;;;4.92;68.61;102121.41;4494365;31;34316;-76
2023/12/16 07:10:40;;;;;;;;;;;;;;;4.61;71.99;102129.16;4495902;31;34260;-75
2023/12/16 07:13:08;;;;;;;;;;;;;;;4.48;73.00;102132.09;4499280;31;33055;-77
2023/12/16 07:15:35;;;;;;;;;;;;;;;4.39;73.76;102126.00;4497694;31;34211;-79
2023/12/16 07:18:03;;;;;;;;;;;;;;;4.34;74.41;102125.50;4476434;31;34272;-75
2023/12/16 07:20:30;;;;;;;;;;;;;;;4.33;73.04;102136.50;4494405;31;33905;-80
2023/12/16 07:22:58;;;;;;;;;;;;;;;5.15;66.98;102137.38;4489815;31;31675;-79
2023/12/16 07:25:25;;;;;;;;;;;;;;;4.77;70.56;102147.09;4473155;31;34686;-79
2023/12/16 07:27:52;;;;;;;;;;;;;;;4.43;73.43;102159.84;4490090;31;33905;-82
2023/12/16 07:30:20;;;;;;;;;;;;;;;4.76;73.10;102155.56;4487435;31;33625;-80
2023/12/16 07:32:47;;;;;;;;;;;;;;;4.88;72.38;102156.84;4484610;31;32972;-79
2023/12/16 07:35:15;;;;;;;;;;;;;;;4.86;71.42;102154.12;4484145;31;34292;-78
2023/12/16 07:37:43;;;;;;;;;;;;;;;5.08;71.12;102148.66;4493513;31;35037;-76
2023/12/16 07:40:10;;;;;;;;;;;;;;;5.00;71.28;102146.94;4477401;31;33090;-81
2023/12/16 07:42:40;;;;;;;;;;;;;;;5.13;71.31;102145.81;4492465;31;33995;-74
2023/12/16 07:45:08;;;;;;;;;;;;;;;4.87;71.85;102145.69;4490141;31;34522;-79
2023/12/16 07:47:36;;;;;;;;;;;;;;;5.15;70.55;102148.53;4487725;31;32552;-76
2023/12/16 07:50:04;;;;;;;;;;;;;;;5.24;70.94;102152.06;4486744;31;34996;-76
2023/12/16 07:52:32;;;;;;;;;;;;;;;4.97;71.73;102154.34;4487446;31;34336;-78
2023/12/16 07:54:59;;;;;;;;;;;;;;;5.34;70.59;102153.03;4462298;31;790912;-80
2023/12/16 07:57:26;;;;;;;;;;;;;;;5.29;70.30;102148.34;4473493;31;33438;-74
2023/12/16 07:59:54;;;;;;;;;;;;;;;5.50;67.62;102156.41;4462477;31;33404;-78
2023/12/16 08:02:21;;;;;;;;;;;;;;;5.39;70.16;102159.53;4487433;31;33001;-75
2023/12/16 08:04:49;;;;;;;;;;;;;;;5.38;69.49;102158.63;4472990;31;34294;-79
2023/12/16 08:07:16;;;;;;;;;;;;;;;5.41;69.38;102158.97;4484402;31;34332;-78
2023/12/16 08:09:44;;;;;;;;;;;;;;;5.97;66.72;102160.41;4484318;31;33692;-78
2023/12/16 08:12:11;;;;;;;;;;;;;;;6.14;68.96;102164.66;4488061;31;32818;-79
2023/12/16 08:14:39;;;;;;;;;;;;;;;6.07;64.96;102158.00;4489933;31;34552;-79
2023/12/16 08:17:06;;;;;;;;;;;;;;;5.77;68.07;102154.84;4488037;31;34410;-79
2023/12/16 08:19:34;;;;;;;;;;;;;;;5.65;67.78;102150.28;4485760;31;34747;-75
2023/12/16 08:22:02;;;;;;;;;;;;;;;6.13;63.22;102162.84;4489133;31;33371;-73
2023/12/16 08:24:29;;;;;;;;;;;;;;;6.55;70.80;102154.06;4476471;31;34061;-76
2023/12/16 08:26:57;;;;;;;;;;;;;;;6.63;58.75;102153.19;4486630;31;34859;-81
2023/12/16 08:29:25;;;;;;;;;;;;;;;6.55;58.09;102151.50;4488806;31;34992;-75
2023/12/16 08:31:52;;;;;;;;;;;;;;;6.27;58.99;102166.78;4489683;31;33818;-78
2023/12/16 08:34:22;;;;;;;;;;;;;;;6.08;59.80;102170.13;4489198;31;33998;-74
2023/12/16 08:36:49;;;;;;;;;;;;;;;6.06;60.37;102169.03;4489714;31;34481;-79
2023/12/16 08:39:17;;;;;;;;;;;;;;;5.71;61.47;102170.56;4479055;31;32707;-75
2023/12/16 08:41:44;;;;;;;;;;;;;;;5.78;61.86;102180.75;4487075;31;33490;-77
2023/12/16 08:44:13;;;;;;;;;;;;;;;6.16;60.58;102172.53;4479939;32;33835;-76
2023/12/16 08:46:40;;;;;;;;;;;;;;;5.99;60.46;102174.31;4475914;31;34871;-74
2023/12/16 08:49:08;;;;;;;;;;;;;;;6.25;59.85;102174.34;4477171;31;33680;-74
2023/12/16 08:51:35;;;;;;;;;;;;;;;6.17;60.13;102175.25;4484883;31;33199;-77
2023/12/16 08:54:04;;;;;;;;;;;;;;;6.32;59.95;102175.91;4488331;31;33817;-74
2023/12/16 08:56:31;;;;;;;;;;;;;;;6.30;59.83;102173.16;4495025;31;34203;-74
2023/12/16 08:58:59;;;;;;;;;;;;;;;6.09;61.03;102171.91;4492167;31;34291;-80
2023/12/16 09:01:26;;;;;;;;;;;;;;;6.21;60.49;102176.47;4490315;31;33253;-77
2023/12/16 09:03:53;;;;;;;;;;;;;;;6.07;61.30;102169.94;4489283;31;33967;-73
2023/12/16 09:06:21;;;;;;;;;;;;;;;6.36;60.84;102167.72;4490072;31;33883;-75
2023/12/16 09:08:48;;;;;;;;;;;;;;;6.21;61.36;102166.19;4491598;31;33708;-75
2023/12/16 09:11:16;;;;;;;;;;;;;;;6.24;61.60;102166.50;4489192;31;33798;-74
2023/12/16 09:13:44;;;;;;;;;;;;;;;6.34;61.48;102174.38;4488333;31;34184;-77
2023/12/16 09:16:11;;;;;;;;;;;;;;;6.49;61.05;102168.19;4482899;31;33950;-79
2023/12/16 09:18:38;;;;;;;;;;;;;;;6.63;61.08;102163.47;4488229;31;34403;-75
2023/12/16 09:21:06;;;;;;;;;;;;;;;6.55;61.53;102159.22;4486504;31;33467;-76
2023/12/16 09:23:34;;;;;;;;;;;;;;;6.72;61.25;102154.06;4486384;31;33944;-74
2023/12/16 09:26:02;;;;;;;;;;;;;;;6.90;61.21;102154.97;4495833;31;33726;-76
2023/12/16 09:28:30;;;;;;;;;;;;;;;7.07;60.47;102154.03;4487971;31;33663;-74
2023/12/16 09:30:58;;;;;;;;;;;;;;;7.05;60.22;102161.59;4491670;31;33369;-75
2023/12/16 09:33:26;;;;;;;;;;;;;;;7.33;60.29;102158.19;4474813;32;34724;-78
2023/12/16 09:35:53;;;;;;;;;;;;;;;7.60;59.73;102150.47;4492095;31;34146;-75
2023/12/16 09:38:21;;;;;;;;;;;;;;;7.71;58.53;102148.94;4494893;31;34985;-74
2023/12/16 09:40:48;;;;;;;;;;;;;;;7.76;58.62;102147.66;4484942;31;33179;-77
2023/12/16 09:43:18;;;;;;;;;;;;;;;7.95;58.01;102150.28;4492778;31;33900;-77
2023/12/16 09:45:48;;;;;;;;;;;;;;;7.92;58.24;102150.03;4477656;32;33262;-72
2023/12/16 09:48:19;;;;;;;;;;;;;;;8.07;58.09;102153.09;4489305;31;33530;-72
2023/12/16 09:50:46;;;;;;;;;;;;;;;8.00;58.45;102159.37;4492921;31;32142;-76
2023/12/16 09:53:14;;;;;;;;;;;;;;;8.16;58.02;102155.63;4484672;31;34223;-72
2023/12/16 09:55:42;;;;;;;;;;;;;;;8.21;57.78;102149.22;4481390;31;34180;-75
2023/12/16 09:58:11;;;;;;;;;;;;;;;7.97;58.36;102148.75;4486630;31;34673;-74
2023/12/16 10:00:39;;;;;;;;;;;;;;;7.97;58.39;102148.75;4496524;31;33107;-77
2023/12/16 10:03:08;;;;;;;;;;;;;;;8.13;58.29;102134.69;4479599;31;33722;-75
2023/12/16 10:05:36;;;;;;;;;;;;;;;8.05;57.79;102142.66;4488344;31;34271;-77
2023/12/16 10:08:05;;;;;;;;;;;;;;;7.58;59.24;102141.69;4483300;31;34918;-75
2023/12/16 10:10:33;;;;;;;;;;;;;;;7.91;58.83;102143.03;4490846;31;33213;-79
2023/12/16 10:13:04;;;;;;;;;;;;;;;7.92;58.95;102142.28;4492352;31;33755;-76
2023/12/16 10:15:32;;;;;;;;;;;;;;;8.06;58.60;102149.63;4480779;31;35083;-75
2023/12/16 10:18:00;;;;;;;;;;;;;;;8.07;58.54;102146.28;4478421;31;35113;-75
2023/12/16 10:20:28;;;;;;;;;;;;;;;8.15;58.58;102138.31;4477133;31;33067;-74
2023/12/16 10:22:59;;;;;;;;;;;;;;;8.06;58.68;102139.28;4489245;31;33956;-75
2023/12/16 10:25:26;;;;;;;;;;;;;;;8.27;58.60;102136.88;4489304;31;35890;-77
2023/12/16 10:27:58;;;;;;;;;;;;;;;8.28;58.34;102136.09;4467383;31;33383;-78
2023/12/16 10:30:25;;;;;;;;;;;;;;;8.33;58.02;102129.69;4490225;31;33756;-78
2023/12/16 10:32:56;;;;;;;;;;;;;;;8.31;58.66;102133.81;4491562;31;33840;-77
2023/12/16 10:35:23;;;;;;;;;;;;;;;8.23;58.68;102137.38;4493837;31;34742;-75
2023/12/16 10:37:52;;;;;;;;;;;;;;;8.40;57.95;102125.97;4489526;31;33485;-81
2023/12/16 10:40:23;;;;;;;;;;;;;;;8.74;57.91;102121.28;4470873;31;33481;-75
2023/12/16 10:42:51;;;;;;;;;;;;;;;8.70;57.54;102114.94;4489787;31;33966;-76
2023/12/16 10:45:19;;;;;;;;;;;;;;;8.68;57.56;102113.00;4488385;31;33984;-76
2023/12/16 10:47:48;;;;;;;;;;;;;;;8.88;57.08;102117.34;4489406;31;34072;-79
2023/12/16 10:50:16;;;;;;;;;;;;;;;8.70;57.11;102117.53;4491439;31;34702;-77
2023/12/16 10:53:02;;;;;;;;;;;;;;;8.77;56.78;102119.91;4479927;31;34875;-76
2023/12/16 10:55:31;;;;;;;;;;;;;;;8.78;56.69;102115.63;4472427;32;34921;-73
2023/12/16 10:58:05;;;;;;;;;;;;;;;8.79;56.54;102117.47;4491065;31;34360;-74
2023/12/16 11:00:32;;;;;;;;;;;;;;;8.72;57.12;102120.25;4491042;31;33396;-74
2023/12/16 11:03:12;;;;;;;;;;;;;;;8.65;57.45;102109.38;4478505;31;34679;-73
2023/12/16 11:05:42;;;;;;;;;;;;;;;8.74;56.85;102103.22;4482504;31;34050;-76
2023/12/16 11:08:10;;;;;;;;;;;;;;;8.67;57.10;102112.06;4477404;31;34174;-75
2023/12/16 11:10:37;;;;;;;;;;;;;;;8.67;57.45;102106.91;4475809;32;32874;-79
2023/12/16 11:13:05;;;;;;;;;;;;;;;8.68;57.28;102100.97;4472173;31;34392;-79
2023/12/16 11:15:33;;;;;;;;;;;;;;;8.63;57.42;102115.16;4472666;31;34027;-77
2023/12/16 11:18:00;;;;;;;;;;;;;;;8.79;57.16;102110.59;4491602;31;33993;-77
2023/12/16 11:20:54;;;;;;;;;;;;;;;8.93;65.50;102113.50;4478433;31;33157;-74
2023/12/16 11:23:24;;;;;;;;;;;;;;;9.59;70.08;102112.38;4483701;31;33419;-78
2023/12/16 11:26:02;;;;;;;;;;;;;;;10.28;70.66;102093.09;4489468;31;34676;-78
2023/12/16 11:28:30;;;;;;;;;;;;;;;10.37;59.42;102093.84;4489623;31;34277;-76
2023/12/16 11:30:58;;;;;;;;;;;;;;;10.37;56.55;102105.16;4483418;31;33220;-78
2023/12/16 11:33:41;;;;;;;;;;;;;;;10.63;56.10;102098.59;4473807;32;33535;-82
2023/12/16 11:36:09;;;;;;;;;;;;;;;10.55;55.01;102102.25;4480385;32;32468;-75
2023/12/16 11:38:42;;;;;;;;;;;;;;;10.77;57.69;102100.59;4484679;32;34038;-75
2023/12/16 11:41:10;;;;;;;;;;;;;;;10.45;55.11;102089.28;4470403;32;33830;-75
2023/12/16 11:43:48;;;;;;;;;;;;;;;10.43;53.62;102091.78;4470644;32;34257;-77
2023/12/16 11:46:32;;;;;;;;;;;;;;;10.39;54.60;102084.50;4470831;32;34105;-80
2023/12/16 11:49:01;;;;;;;;;;;;;;;10.34;54.67;102081.56;4484562;32;34583;-79
2023/12/16 11:51:31;;;;;;;;;;;;;;;10.25;56.39;102083.34;4488354;31;33774;-75
2023/12/16 11:53:58;;;;;;;;;;;;;;;10.24;55.69;102084.16;4471796;31;33764;-74
2023/12/16 11:56:26;;;;;;;;;;;;;;;10.30;55.14;102089.88;4472370;31;33824;-74
2023/12/16 11:58:59;;;;;;;;;;;;;;;10.19;56.80;102090.63;4491171;31;35282;-76
2023/12/16 12:01:31;;;;;;;;;;;;;;;10.38;57.69;102088.81;4476408;31;32846;-75
2023/12/16 12:04:00;;;;;;;;;;;;;;;10.59;54.49;102091.34;4476869;31;34967;-78
2023/12/16 12:06:28;;;;;;;;;;;;;;;10.37;55.10;102097.38;4490100;31;33882;-78
2023/12/16 12:08:56;;;;;;;;;;;;;;;10.33;55.78;102086.59;4485613;31;33960;-74
2023/12/16 12:11:23;;;;;;;;;;;;;;;10.32;54.59;102071.88;4492901;31;33977;-79
2023/12/16 12:13:52;;;;;;;;;;;;;;;10.62;55.69;102089.91;4490591;31;34048;-75
2023/12/16 12:16:21;;;;;;;;;;;;;;;10.77;54.51;102089.34;4491391;31;34106;-75
2023/12/16 12:18:48;;;;;;;;;;;;;;;10.66;55.28;102096.22;4489114;31;34694;-77
2023/12/16 12:21:16;;;;;;;;;;;;;;;10.89;54.53;102089.41;4491866;31;33108;-76
2023/12/16 12:23:44;;;;;;;;;;;;;;;10.70;53.55;102087.94;4473349;31;34881;-78
2023/12/16 12:26:11;;;;;;;;;;;;;;;10.68;55.05;102078.22;4476318;31;34009;-73
2023/12/16 12:28:38;;;;;;;;;;;;;;;11.00;52.62;102083.38;4495265;31;34492;-78
2023/12/16 12:31:06;;;;;;;;;;;;;;;11.41;60.85;102081.47;4489344;31;33439;-77
2023/12/16 12:33:34;;;;;;;;;;;;;;;11.35;54.86;102074.88;4496582;31;34325;-76
2023/12/16 12:36:02;;;;;;;;;;;;;;;11.55;57.19;102074.75;4494879;31;34998;-83
2023/12/16 12:38:32;;;;;;;;;;;;;;;11.58;52.68;102074.06;4487900;31;34351;-76
2023/12/16 12:41:00;;;;;;;;;;;;;;;11.76;53.09;102064.19;4488846;31;34718;-78
2023/12/16 12:43:29;;;;;;;;;;;;;;;11.57;53.17;102064.47;4491234;31;33797;-76
2023/12/16 12:46:07;;;;;;;;;;;;;;;11.66;52.42;102069.47;4476669;31;34782;-77
2023/12/16 12:48:35;;;;;;;;;;;;;;;11.35;55.26;102067.09;4483914;31;34369;-76
2023/12/16 12:51:07;;;;;;;;;;;;;;;11.24;54.58;102062.75;4480500;31;34228;-77